Time;durP1;ratioP1;P1;durP2;ratioP2;P2;SDS_P1;SDS_P2;PMS_P1;PMS_P2;Temp;Humidity;BMP_temperature;BMP_pressure;BME280_temperature;BME280_humidity;BME280_pressure;Samples;Min_cycle;Max_cycle;Signal;HPM_P1;HPM_P2
2022/11/04 00:01:09;;;;;;;26.75;11.90;;;;;;;13.91;53.38;94782.25;4184208;28;20091;-55
2022/11/04 00:03:11;;;;;;;28.10;12.15;;;;;;;13.92;53.76;94791.81;4193246;28;20486;-55
2022/11/04 00:05:13;;;;;;;24.92;11.55;;;;;;;13.92;53.88;94781.28;4195532;28;20136;-53
2022/11/04 00:09:34;;;;;;;28.73;12.25;;;;;;;13.89;53.38;94782.41;4195613;28;20045;-55
2022/11/04 00:13:57;;;;;;;21.13;10.88;;;;;;;13.90;53.58;94784.06;4201332;28;20128;-55
2022/11/04 00:18:23;;;;;;;23.23;12.10;;;;;;;13.88;53.67;94782.63;4181869;28;20087;-52
2022/11/04 00:29:49;;;;;;;23.85;12.43;;;;;;;13.62;54.82;94778.53;4198824;28;20052;-54
2022/11/04 00:34:10;;;;;;;21.35;12.23;;;;;;;13.55;54.85;94777.59;4212663;28;20577;-58
2022/11/04 00:36:12;;;;;;;23.20;11.10;;;;;;;13.55;54.46;94772.34;4212003;28;20190;-55
2022/11/04 00:38:14;;;;;;;20.23;11.98;;;;;;;13.57;54.68;94774.78;4212757;28;20145;-56
2022/11/04 00:40:16;;;;;;;21.90;11.52;;;;;;;13.60;54.56;94769.19;4212220;28;20055;-54
2022/11/04 00:42:17;;;;;;;25.15;12.65;;;;;;;13.60;54.62;94770.00;4212297;28;20090;-55
2022/11/04 00:44:19;;;;;;;23.77;12.30;;;;;;;13.60;54.23;94764.72;4185341;28;20132;-55
2022/11/04 00:46:21;;;;;;;25.38;12.18;;;;;;;13.62;54.49;94765.38;4211064;28;20131;-53
2022/11/04 00:48:22;;;;;;;25.10;11.93;;;;;;;13.63;54.43;94758.28;4197710;28;20123;-52
2022/11/04 00:50:24;;;;;;;21.92;12.07;;;;;;;13.57;54.25;94748.44;4193876;28;20147;-52
2022/11/04 00:52:26;;;;;;;23.75;12.63;;;;;;;13.56;54.66;94754.72;4198956;28;20076;-53
2022/11/04 00:54:27;;;;;;;22.65;12.32;;;;;;;13.53;54.74;94753.28;4198687;28;20360;-55
2022/11/04 00:56:29;;;;;;;18.20;11.27;;;;;;;13.49;54.85;94744.91;4200702;28;20111;-60
2022/11/04 00:58:31;;;;;;;23.00;12.48;;;;;;;13.47;54.99;94744.25;4204202;28;20134;-58
2022/11/04 01:00:32;;;;;;;23.10;12.88;;;;;;;13.40;55.03;94751.22;4210806;28;20048;-52
2022/11/04 01:02:34;;;;;;;23.77;12.77;;;;;;;13.36;55.48;94749.94;4194767;28;20768;-55
2022/11/04 01:04:36;;;;;;;20.83;11.77;;;;;;;13.32;55.48;94751.28;4179950;28;20060;-53
2022/11/04 01:06:37;;;;;;;22.10;12.50;;;;;;;13.28;55.25;94747.31;4200391;28;20051;-56
2022/11/04 01:08:39;;;;;;;20.10;12.43;;;;;;;13.27;55.39;94738.63;4212172;28;20127;-55
2022/11/04 01:10:43;;;;;;;24.45;12.73;;;;;;;13.27;55.65;94745.66;4193608;28;20051;-59
2022/11/04 01:12:46;;;;;;;19.65;12.90;;;;;;;13.26;55.66;94734.31;4182836;28;20045;-55
2022/11/04 01:14:48;;;;;;;22.33;12.38;;;;;;;13.24;55.47;94738.13;4195635;28;20131;-54
2022/11/04 01:16:50;;;;;;;26.45;12.25;;;;;;;13.25;55.49;94737.13;4184352;28;20076;-54
2022/11/04 01:18:52;;;;;;;25.65;11.85;;;;;;;13.28;55.13;94734.16;4192230;28;20131;-55
2022/11/04 01:20:53;;;;;;;21.63;10.80;;;;;;;13.26;55.21;94729.06;4179737;28;20515;-56
2022/11/04 01:22:55;;;;;;;21.42;11.18;;;;;;;13.27;55.08;94719.34;4197308;28;20135;-54
2022/11/04 01:24:57;;;;;;;26.13;12.52;;;;;;;13.22;55.36;94719.88;4206449;28;20062;-56
2022/11/04 01:26:58;;;;;;;19.95;11.80;;;;;;;13.16;55.92;94725.84;4188906;28;20281;-55
2022/11/04 01:29:00;;;;;;;22.67;11.80;;;;;;;13.14;55.87;94719.13;4194765;28;20045;-57
2022/11/04 01:31:10;;;;;;;18.05;11.90;;;;;;;13.09;56.15;94719.66;4193564;28;20048;-55
2022/11/04 01:33:12;;;;;;;21.50;11.77;;;;;;;13.11;55.87;94717.66;4207899;28;20048;-55
2022/11/04 01:35:14;;;;;;;25.13;12.77;;;;;;;13.10;56.20;94718.66;4211460;28;20136;-58
2022/11/04 01:37:15;;;;;;;19.98;12.18;;;;;;;13.15;56.05;94718.16;4205640;28;20055;-57
2022/11/04 01:39:17;;;;;;;21.48;11.82;;;;;;;13.18;55.69;94723.03;4185595;28;20076;-57
2022/11/04 01:41:30;;;;;;;21.60;11.60;;;;;;;13.16;55.68;94717.94;4190193;28;20055;-55
2022/11/04 01:43:43;;;;;;;19.38;11.82;;;;;;;13.19;55.79;94728.13;4182133;28;20095;-56
2022/11/04 01:45:48;;;;;;;30.33;12.57;;;;;;;13.18;55.92;94723.03;4176448;28;20132;-55
2022/11/04 01:47:59;;;;;;;25.45;12.07;;;;;;;13.15;56.08;94723.41;4191454;28;20053;-55
2022/11/04 01:50:25;;;;;;;25.85;12.77;;;;;;;13.09;56.21;94722.28;4176708;28;20671;-55
2022/11/04 01:52:32;;;;;;;21.60;11.93;;;;;;;13.00;56.02;94712.81;4189299;28;20814;-55
2022/11/04 01:54:34;;;;;;;23.05;12.35;;;;;;;12.99;56.53;94708.53;4182771;28;20270;-56
2022/11/04 01:56:37;;;;;;;23.38;12.30;;;;;;;12.91;56.08;94709.41;4197360;28;20054;-57
2022/11/04 01:58:51;;;;;;;18.20;12.00;;;;;;;12.90;56.16;94715.63;4190967;28;20049;-54
2022/11/04 02:00:52;;;;;;;23.05;11.73;;;;;;;12.80;56.51;94707.13;4199912;28;20447;-51
2022/11/04 02:03:19;;;;;;;21.05;12.23;;;;;;;12.77;56.58;94716.19;4205024;28;20044;-55
2022/11/04 02:05:21;;;;;;;20.75;11.95;;;;;;;12.81;56.60;94708.78;4194277;28;20051;-55
2022/11/04 02:07:23;;;;;;;30.90;12.70;;;;;;;12.82;56.89;94703.38;4194725;28;20131;-54
2022/11/04 02:09:27;;;;;;;20.65;11.95;;;;;;;12.80;56.61;94700.09;4193821;28;20128;-57
2022/11/04 02:13:49;;;;;;;20.77;12.15;;;;;;;12.79;56.62;94702.88;4204581;28;20044;-54
2022/11/04 02:15:57;;;;;;;22.65;12.50;;;;;;;12.80;56.81;94699.25;4183577;28;20558;-51
2022/11/04 02:18:04;;;;;;;25.48;11.38;;;;;;;12.79;56.84;94695.00;4189904;28;20151;-56
2022/11/04 02:20:27;;;;;;;22.33;12.57;;;;;;;12.79;56.60;94695.00;4199267;28;20109;-51
2022/11/04 02:22:58;;;;;;;24.60;13.45;;;;;;;12.75;56.81;94689.25;4209812;28;20462;-51
2022/11/04 02:25:02;;;;;;;28.40;12.55;;;;;;;12.70;56.92;94696.84;4177563;28;20071;-56
2022/11/04 02:27:12;;;;;;;23.90;13.05;;;;;;;12.49;57.68;94697.44;4193538;28;20050;-53
2022/11/04 02:29:34;;;;;;;24.20;13.82;;;;;;;12.39;57.97;94692.41;4197259;28;20062;-53
2022/11/04 02:32:10;;;;;;;23.42;13.10;;;;;;;12.31;58.21;94692.44;4186559;28;20109;-53
2022/11/04 02:34:21;;;;;;;25.27;13.23;;;;;;;12.33;58.40;94689.63;4191748;28;20135;-53
2022/11/04 02:36:33;;;;;;;26.67;12.75;;;;;;;12.29;58.52;94687.34;4201639;28;20525;-56
2022/11/04 02:38:42;;;;;;;33.25;13.48;;;;;;;12.29;58.69;94691.78;4204064;28;20094;-51
2022/11/04 02:41:21;;;;;;;24.23;13.05;;;;;;;12.29;58.40;94694.41;4180400;28;20162;-57
2022/11/04 02:43:32;;;;;;;24.80;13.35;;;;;;;12.31;58.41;94692.44;4194980;28;20047;-55
2022/11/04 02:45:44;;;;;;;21.80;13.32;;;;;;;12.37;58.38;94693.53;4202224;28;20098;-55
2022/11/04 02:47:51;;;;;;;24.50;12.85;;;;;;;12.43;57.96;94687.59;4199848;28;20123;-55
2022/11/04 02:50:11;;;;;;;21.88;13.35;;;;;;;12.45;57.78;94686.47;4192729;28;20040;-54
2022/11/04 02:52:17;;;;;;;19.73;13.23;;;;;;;12.44;57.88;94689.25;4185818;28;20690;-54
2022/11/04 02:54:43;;;;;;;20.80;13.10;;;;;;;12.44;58.30;94689.25;4190861;28;20163;-51
2022/11/04 02:56:48;;;;;;;24.55;12.50;;;;;;;12.44;57.70;94684.81;4206901;28;20127;-50
2022/11/04 02:59:00;;;;;;;23.85;12.73;;;;;;;12.43;57.85;94687.59;4208793;28;20048;-52
2022/11/04 03:01:03;;;;;;;22.27;13.05;;;;;;;12.44;57.78;94687.44;4207855;28;20197;-52
2022/11/04 03:03:09;;;;;;;23.27;13.57;;;;;;;12.41;58.02;94685.16;4210735;28;20503;-54
2022/11/04 03:05:18;;;;;;;22.80;12.32;;;;;;;12.33;58.08;94687.00;4184796;28;20470;-53
2022/11/04 03:07:24;;;;;;;19.80;12.40;;;;;;;12.06;58.68;94681.16;4180988;28;20076;-53
2022/11/04 03:09:28;;;;;;;21.00;12.85;;;;;;;12.01;59.09;94688.75;4192795;28;20048;-52
2022/11/04 03:11:30;;;;;;;25.15;13.00;;;;;;;12.03;58.78;94687.59;4183271;28;20049;-58
2022/11/04 03:13:45;;;;;;;24.02;13.20;;;;;;;12.09;58.98;94681.66;4203707;28;20058;-54
2022/11/04 03:16:09;;;;;;;23.73;12.65;;;;;;;12.20;58.81;94680.47;4201230;28;20160;-53
2022/11/04 03:18:14;;;;;;;;;;;;;;;12.22;58.43;94675.88;4189481;28;20135;-55
2022/11/04 03:20:19;;;;;;;19.65;13.63;;;;;;;12.20;58.24;94680.47;4185977;28;19996;-53
2022/11/04 03:22:23;;;;;;;20.55;12.60;;;;;;;12.20;58.51;94683.09;4200196;28;20235;-53
2022/11/04 03:24:25;;;;;;;22.83;13.70;;;;;;;12.12;58.48;94680.50;4190381;28;20223;-53
2022/11/04 03:26:31;;;;;;;24.80;13.38;;;;;;;12.09;58.43;94683.47;4176706;28;20128;-51
2022/11/04 03:29:15;;;;;;;23.00;13.75;;;;;;;12.11;58.80;94683.28;4183191;28;20040;-52
2022/11/04 03:31:24;;;;;;;23.60;13.90;;;;;;;12.16;58.73;94684.44;4150019;28;20045;-54
2022/11/04 03:33:37;;;;;;;19.92;13.38;;;;;;;12.17;58.53;94680.81;4184307;28;20624;-53
2022/11/04 03:35:38;;;;;;;23.35;13.43;;;;;;;12.14;58.45;94681.16;4188616;28;20059;-53
2022/11/04 03:37:41;;;;;;;21.10;12.82;;;;;;;12.13;58.57;94682.16;4188977;28;20119;-52
2022/11/04 03:39:43;;;;;;;24.35;13.73;;;;;;;12.14;58.49;94681.16;4183687;28;20211;-52
2022/11/04 03:42:01;;;;;;;24.10;13.45;;;;;;;12.12;58.52;94685.75;4183751;28;20131;-52
2022/11/04 03:44:02;;;;;;;30.45;13.80;;;;;;;12.11;58.55;94684.13;4179109;28;20503;-52
2022/11/04 03:46:04;;;;;;;23.52;12.77;;;;;;;12.08;58.66;94680.00;4168419;28;20088;-54
2022/11/04 03:48:06;;;;;;;24.45;13.80;;;;;;;12.03;58.82;94684.97;4203332;28;20047;-52
2022/11/04 03:50:19;;;;;;;26.52;14.43;;;;;;;11.91;59.08;94688.09;4191801;28;20135;-55
2022/11/04 03:52:21;;;;;;;21.57;12.67;;;;;;;11.78;59.39;94678.09;4191952;28;20068;-49
2022/11/04 03:54:22;;;;;;;24.73;13.48;;;;;;;11.74;59.93;94677.59;4179822;28;20049;-53
2022/11/04 03:56:59;;;;;;;23.13;13.68;;;;;;;11.74;59.89;94674.16;4180113;28;20147;-51
2022/11/04 03:59:04;;;;;;;22.88;13.52;;;;;;;11.81;59.67;94675.97;4208376;28;20139;-54
2022/11/04 04:01:11;;;;;;;22.52;13.25;;;;;;;11.83;59.32;94670.53;4209613;28;20082;-51
2022/11/04 04:03:19;;;;;;;23.30;13.32;;;;;;;11.80;59.44;94674.31;4213115;28;20083;-53
2022/11/04 04:05:28;;;;;;;21.08;13.48;;;;;;;11.77;59.50;94672.03;4201836;28;20107;-54
2022/11/04 04:07:37;;;;;;;25.33;13.85;;;;;;;11.70;59.57;94671.03;4205688;28;20076;-54
2022/11/04 04:10:58;;;;;;;19.15;12.95;;;;;;;11.67;59.44;94664.31;4196633;28;20127;-53
2022/11/04 04:12:37;;;;;;;23.58;13.30;;;;;;;11.68;59.65;94667.78;4202176;28;20131;-55
2022/11/04 04:14:42;;;;;;;24.55;13.32;;;;;;;11.68;59.65;94667.78;4209128;28;20048;-51
2022/11/04 04:16:46;;;;;;;22.23;13.25;;;;;;;11.68;59.67;94670.41;4208721;28;20146;-52
2022/11/04 04:18:51;;;;;;;26.35;14.20;;;;;;;11.65;59.94;94674.16;4207280;28;20087;-52
2022/11/04 04:21:01;;;;;;;25.52;13.32;;;;;;;11.67;59.82;94672.19;4208688;28;20105;-53
2022/11/04 04:27:52;;;;;;;23.63;13.85;;;;;;;11.67;59.80;94671.38;4204722;28;20052;-57
2022/11/04 04:29:54;;;;;;;25.83;13.43;;;;;;;11.64;59.63;94662.03;4201831;28;20048;-52
2022/11/04 04:31:57;;;;;;;23.13;12.95;;;;;;;11.60;59.78;94660.72;4202785;28;20288;-55
2022/11/04 04:33:59;;;;;;;25.55;15.15;;;;;;;11.57;60.08;94665.47;4204453;28;20642;-55
2022/11/04 04:36:01;;;;;;;33.78;13.55;;;;;;;11.56;60.20;94669.09;4196212;28;20135;-53
2022/11/04 04:45:12;;;;;;;;;;;;;;;11.57;59.95;94660.22;4191163;28;20059;-49
2022/11/04 04:47:18;;;;;;;27.08;14.10;;;;;;;11.61;59.99;94664.16;4194192;28;19952;-54
2022/11/04 04:49:20;;;;;;;20.90;13.57;;;;;;;11.62;59.83;94669.25;4194146;28;20049;-51
2022/11/04 04:51:22;;;;;;;18.90;13.27;;;;;;;11.64;59.79;94669.09;4180125;28;20056;-49
2022/11/04 04:53:24;;;;;;;26.67;14.32;;;;;;;11.63;59.61;94664.81;4179937;28;20593;-51
2022/11/04 04:55:25;;;;;;;20.83;12.95;;;;;;;11.63;59.82;94664.81;4180825;28;20140;-49
2022/11/04 04:57:27;;;;;;;23.30;13.25;;;;;;;11.62;59.77;94671.06;4180956;28;20091;-53
2022/11/04 04:59:29;;;;;;;32.33;18.55;;;;;;;11.60;59.80;94670.41;4196015;28;20053;-51
2022/11/04 05:01:31;;;;;;;46.13;35.42;;;;;;;11.62;59.83;94665.81;4195274;28;20049;-51
2022/11/04 05:03:32;;;;;;;55.92;40.60;;;;;;;11.59;59.97;94666.94;4194495;28;20522;-52
2022/11/04 05:05:34;;;;;;;54.50;46.72;;;;;;;11.60;59.77;94676.47;4197106;28;20143;-52
2022/11/04 05:07:36;;;;;;;57.13;46.25;;;;;;;11.64;59.58;94671.72;4195669;28;20080;-52
2022/11/04 05:09:37;;;;;;;52.13;41.88;;;;;;;11.64;59.58;94669.09;4207583;28;20037;-54
2022/11/04 05:11:39;;;;;;;56.63;41.63;;;;;;;11.65;59.87;94670.72;4188835;28;20515;-55
2022/11/04 05:13:41;;;;;;;42.33;33.35;;;;;;;11.66;59.50;94670.56;4180035;28;20083;-53
2022/11/04 05:15:42;;;;;;;46.85;33.08;;;;;;;11.69;59.51;94683.34;4190971;28;20076;-52
2022/11/04 05:17:44;;;;;;;47.25;30.23;;;;;;;11.67;59.55;94674.81;4192176;28;20056;-52
2022/11/04 05:19:45;;;;;;;40.90;29.23;;;;;;;11.66;59.54;94675.00;4187280;28;20058;-54
2022/11/04 05:21:47;;;;;;;41.30;24.83;;;;;;;11.61;59.44;94672.03;4198143;28;20451;-52
2022/11/04 05:23:49;;;;;;;35.28;24.70;;;;;;;11.60;59.43;94675.66;4205301;28;20052;-55
2022/11/04 05:25:50;;;;;;;40.38;25.58;;;;;;;11.60;59.89;94676.47;4204544;28;20064;-53
2022/11/04 05:27:52;;;;;;;40.08;25.40;;;;;;;11.65;59.92;94683.84;4202634;28;20166;-53
2022/11/04 05:29:53;;;;;;;35.13;21.95;;;;;;;11.68;59.72;94679.09;4195926;28;20083;-56
2022/11/04 05:31:55;;;;;;;34.15;20.45;;;;;;;11.70;59.36;94686.78;4194892;28;20056;-53
2022/11/04 05:33:58;;;;;;;36.83;19.13;;;;;;;11.73;59.58;94689.09;4207260;28;20482;-55
2022/11/04 05:36:07;;;;;;;35.88;19.55;;;;;;;11.78;59.53;94692.03;4202374;28;20079;-51
2022/11/04 05:38:09;;;;;;;34.05;20.67;;;;;;;11.81;59.28;94694.34;4205065;28;20135;-53
2022/11/04 05:40:11;;;;;;;37.03;18.85;;;;;;;11.85;59.43;94695.63;4202870;28;20131;-53
2022/11/04 05:42:13;;;;;;;31.45;16.58;;;;;;;11.85;59.48;94700.88;4202880;28;20378;-53
2022/11/04 05:44:14;;;;;;;33.50;18.38;;;;;;;11.91;59.27;94704.66;4190055;28;20095;-54
2022/11/04 05:46:16;;;;;;;27.52;18.08;;;;;;;11.96;59.24;94704.16;4206275;28;20143;-50
2022/11/04 05:48:18;;;;;;;26.95;16.63;;;;;;;12.01;59.19;94707.94;4210666;28;20135;-53
2022/11/04 05:50:19;;;;;;;27.70;17.17;;;;;;;12.04;59.30;94710.22;4211659;28;20075;-53
2022/11/04 05:52:21;;;;;;;30.00;16.67;;;;;;;12.03;59.23;94713.03;4211427;28;20476;-54
2022/11/04 05:54:23;;;;;;;30.48;17.35;;;;;;;12.08;59.25;94708.91;4210778;28;20101;-52
2022/11/04 05:56:24;;;;;;;28.38;17.15;;;;;;;12.09;59.31;94712.38;4210783;28;20055;-55
2022/11/04 05:58:26;;;;;;;30.73;17.77;;;;;;;12.11;59.14;94709.53;4211063;28;20047;-50
2022/11/04 06:00:28;;;;;;;29.90;17.98;;;;;;;12.06;59.57;94707.44;4209536;28;20764;-49
2022/11/04 06:02:29;;;;;;;28.45;17.60;;;;;;;12.11;59.48;94714.78;4210091;28;20083;-52
2022/11/04 06:04:32;;;;;;;31.52;18.35;;;;;;;12.17;59.25;94709.69;4207608;28;20109;-56
2022/11/04 06:06:35;;;;;;;31.45;17.70;;;;;;;12.16;59.22;94713.31;4186473;28;20167;-54
2022/11/04 06:08:36;;;;;;;31.98;18.75;;;;;;;12.14;59.42;94715.28;4186883;28;20049;-56
2022/11/04 06:10:45;;;;;;;31.80;18.65;;;;;;;12.23;59.46;94713.47;4183796;28;20132;-54
2022/11/04 06:12:46;;;;;;;26.95;17.45;;;;;;;12.24;59.22;94704.59;4209119;28;20131;-54
2022/11/04 06:14:48;;;;;;;25.67;17.13;;;;;;;12.22;59.48;94712.66;4209580;28;20165;-52
2022/11/04 06:16:50;;;;;;;28.70;18.20;;;;;;;12.25;59.66;94707.03;4208992;28;20132;-57
2022/11/04 06:18:52;;;;;;;28.60;17.58;;;;;;;12.33;59.43;94708.03;4210225;28;20227;-52
2022/11/04 06:21:08;;;;;;;34.67;17.48;;;;;;;12.40;59.11;94706.34;4180165;28;20128;-55
2022/11/04 06:23:10;;;;;;;31.60;19.42;;;;;;;12.45;59.39;94706.66;4200634;28;20143;-52
2022/11/04 06:25:14;;;;;;;36.40;18.15;;;;;;;12.53;59.09;94709.25;4197656;28;20063;-54
2022/11/04 06:27:16;;;;;;;29.10;18.38;;;;;;;12.63;59.04;94709.06;4194432;28;20493;-54
2022/11/04 06:29:17;;;;;;;31.25;17.90;;;;;;;12.66;59.09;94706.06;4201035;28;20084;-55
2022/11/04 06:31:19;;;;;;;31.05;19.17;;;;;;;12.68;59.02;94704.91;4202544;28;20072;-55
2022/11/04 06:33:21;;;;;;;28.08;19.52;;;;;;;12.60;59.23;94710.19;4197531;28;20520;-55
2022/11/04 06:35:23;;;;;;;31.38;19.10;;;;;;;12.64;59.15;94711.50;4194643;28;20153;-51
2022/11/04 06:37:24;;;;;;;32.53;19.60;;;;;;;12.63;59.37;94717.75;4201080;28;20743;-53
2022/11/04 06:39:26;;;;;;;31.30;19.63;;;;;;;12.59;59.38;94721.72;4204245;28;20127;-54
2022/11/04 06:41:27;;;;;;;32.85;18.30;;;;;;;12.60;59.76;94715.44;4201601;28;20135;-54
2022/11/04 06:43:29;;;;;;;34.58;20.60;;;;;;;12.67;59.37;94718.25;4186758;28;20474;-55
2022/11/04 06:45:31;;;;;;;36.35;19.92;;;;;;;12.66;59.31;94720.03;4198687;28;20052;-54
2022/11/04 06:47:32;;;;;;;34.45;19.63;;;;;;;12.59;59.74;94723.53;4203935;28;20347;-53
2022/11/04 06:49:34;;;;;;;34.75;22.25;;;;;;;12.41;60.24;94721.09;4196496;28;20108;-52
2022/11/04 06:51:36;;;;;;;32.10;20.83;;;;;;;12.40;60.64;94720.28;4190196;28;20504;-52
2022/11/04 06:53:37;;;;;;;35.95;21.50;;;;;;;12.47;60.48;94713.38;4191397;28;20095;-54
2022/11/04 06:55:39;;;;;;;32.33;21.08;;;;;;;12.58;60.29;94716.63;4209961;28;20063;-52
2022/11/04 06:57:41;;;;;;;39.78;21.23;;;;;;;12.75;59.83;94712.91;4210353;28;20471;-55
2022/11/04 06:59:43;;;;;;;38.22;21.60;;;;;;;12.91;59.63;94710.22;4210293;28;20043;-53
2022/11/04 07:01:45;;;;;;;37.63;22.15;;;;;;;13.02;59.25;94705.56;4209143;28;20079;-55
2022/11/04 07:03:53;;;;;;;35.00;20.67;;;;;;;13.09;59.25;94704.69;4209161;28;20051;-55
2022/11/04 07:05:55;;;;;;;31.88;19.63;;;;;;;13.18;59.15;94702.00;4198568;28;20172;-54
2022/11/04 07:07:56;;;;;;;35.67;21.67;;;;;;;13.24;58.85;94702.13;4192173;28;20048;-55
2022/11/04 07:09:58;;;;;;;33.65;21.40;;;;;;;13.34;58.83;94707.19;4179860;28;20080;-51
2022/11/04 07:12:00;;;;;;;31.90;21.48;;;;;;;13.51;58.21;94705.25;4179722;28;20072;-53
2022/11/04 07:14:01;;;;;;;32.20;20.65;;;;;;;13.58;57.70;94698.28;4190494;28;20127;-55
2022/11/04 07:16:05;;;;;;;34.58;20.80;;;;;;;13.66;57.92;94705.28;4182362;28;20541;-55
2022/11/04 07:18:06;;;;;;;35.25;20.77;;;;;;;13.75;57.58;94698.16;4189159;28;20522;-53
2022/11/04 07:20:12;;;;;;;30.50;19.58;;;;;;;13.88;57.74;94699.16;4179908;28;20049;-53
2022/11/04 07:22:13;;;;;;;53.25;28.52;;;;;;;13.98;57.50;94691.00;4195257;28;20049;-48
2022/11/04 07:24:15;;;;;;;34.95;21.83;;;;;;;13.96;56.95;94690.38;4207823;28;20046;-56
2022/11/04 07:26:16;;;;;;;38.05;22.52;;;;;;;13.89;56.57;94684.16;4201320;28;20062;-52
2022/11/04 07:28:19;;;;;;;34.95;20.58;;;;;;;13.88;57.31;94678.09;4200645;28;20257;-54
2022/11/04 07:30:20;;;;;;;37.58;22.30;;;;;;;13.92;57.38;94687.28;4194871;28;20048;-56
2022/11/04 07:32:22;;;;;;;44.83;21.75;;;;;;;14.03;56.64;94687.84;4206844;28;20050;-57
2022/11/04 07:34:23;;;;;;;40.45;22.80;;;;;;;14.10;56.71;94683.47;4210367;28;20079;-56
2022/11/04 07:36:25;;;;;;;34.28;20.77;;;;;;;14.02;56.57;94673.00;4190938;28;20052;-58
2022/11/04 07:38:27;;;;;;;36.25;21.05;;;;;;;14.05;56.84;94678.75;4200208;28;20489;-55
2022/11/04 07:40:29;;;;;;;31.42;20.05;;;;;;;14.17;56.68;94675.66;4206540;28;20131;-56
2022/11/04 07:42:31;;;;;;;40.17;21.33;;;;;;;14.28;56.27;94668.13;4204024;28;20136;-53
2022/11/04 07:44:33;;;;;;;32.10;20.83;;;;;;;14.41;55.96;94672.75;4191152;28;20131;-57
2022/11/04 07:46:34;;;;;;;30.67;20.50;;;;;;;14.51;55.33;94673.28;4208536;28;20111;-54
2022/11/04 07:48:36;;;;;;;33.22;21.30;;;;;;;14.67;55.40;94667.03;4185695;28;20193;-56
2022/11/04 07:50:39;;;;;;;34.97;21.70;;;;;;;14.60;55.65;94667.94;4197282;28;20049;-55
2022/11/04 07:52:41;;;;;;;35.27;22.23;;;;;;;14.10;56.76;94660.56;4189167;28;20111;-56
2022/11/04 07:54:42;;;;;;;43.13;22.63;;;;;;;14.01;57.53;94666.94;4184166;28;20128;-57
2022/11/04 07:56:44;;;;;;;38.10;21.63;;;;;;;14.05;57.70;94670.03;4197456;28;20080;-56
2022/11/04 07:58:46;;;;;;;37.78;20.95;;;;;;;14.01;57.46;94661.66;4189705;28;20405;-57
2022/11/04 08:00:48;;;;;;;42.55;22.80;;;;;;;13.82;57.93;94664.81;4192950;28;20066;-55
2022/11/04 08:02:49;;;;;;;35.30;21.60;;;;;;;13.75;58.44;94664.72;4194250;28;20131;-53
2022/11/04 08:04:51;;;;;;;34.60;22.75;;;;;;;13.62;59.09;94662.72;4186402;28;20131;-51
2022/11/04 08:06:53;;;;;;;36.03;23.35;;;;;;;13.70;58.68;94659.16;4203460;28;20086;-55
2022/11/04 08:08:57;;;;;;;41.95;25.38;;;;;;;13.99;58.17;94654.94;4211223;28;20131;-55
2022/11/04 08:11:01;;;;;;;43.33;23.85;;;;;;;14.26;57.77;94653.47;4198830;28;20136;-57
2022/11/04 08:13:03;;;;;;;37.22;23.30;;;;;;;14.20;57.41;94648.97;4212434;28;20059;-54
2022/11/04 08:15:05;;;;;;;31.30;22.17;;;;;;;14.45;57.03;94652.09;4210047;28;20182;-54
2022/11/04 08:17:07;;;;;;;32.50;22.02;;;;;;;14.54;56.63;94648.38;4210365;28;20655;-52
2022/11/04 08:19:09;;;;;;;39.47;23.65;;;;;;;14.10;57.82;94639.50;4194964;28;20077;-55
2022/11/04 08:21:11;;;;;;;38.58;23.48;;;;;;;14.07;58.23;94639.06;4210233;28;20471;-56
2022/11/04 08:23:13;;;;;;;35.05;22.65;;;;;;;14.09;58.08;94637.88;4210385;28;20074;-54
2022/11/04 08:25:15;;;;;;;33.10;22.50;;;;;;;14.19;57.51;94645.50;4205684;28;20063;-54
2022/11/04 08:27:17;;;;;;;36.72;23.15;;;;;;;14.06;57.84;94643.50;4185733;28;20103;-54
2022/11/04 08:29:19;;;;;;;38.22;23.15;;;;;;;14.11;57.98;94629.78;4192964;28;20472;-52
2022/11/04 08:31:26;;;;;;;35.17;22.70;;;;;;;14.23;57.67;94632.78;4194319;28;20120;-58
2022/11/04 08:33:30;;;;;;;38.78;24.20;;;;;;;14.27;57.82;94632.22;4195968;28;20080;-53
2022/11/04 08:35:33;;;;;;;;;;;;;;;14.33;57.61;94623.59;4184197;28;20231;-55
2022/11/04 08:37:41;;;;;;;36.67;24.10;;;;;;;14.64;56.92;94624.38;4182579;28;20058;-57
2022/11/04 08:39:43;;;;;;;39.33;25.90;;;;;;;14.91;56.36;94625.50;4195791;28;20076;-54
2022/11/04 08:41:44;;;;;;;36.50;24.42;;;;;;;15.21;55.46;94617.44;4205472;28;20151;-57
2022/11/04 08:43:46;;;;;;;36.95;22.45;;;;;;;15.50;54.51;94617.28;4200163;28;20070;-56
2022/11/04 08:45:48;;;;;;;38.00;22.48;;;;;;;15.64;53.75;94607.66;4189835;28;20597;-55
2022/11/04 08:47:50;;;;;;;35.85;22.25;;;;;;;15.89;53.61;94609.84;4209325;28;20067;-58
2022/11/04 08:49:51;;;;;;;37.42;22.55;;;;;;;16.09;52.80;94602.03;4194684;28;20135;-55
2022/11/04 08:51:59;;;;;;;35.95;22.88;;;;;;;16.21;52.34;94608.41;4188529;28;20091;-55
2022/11/04 08:54:01;;;;;;;35.40;21.52;;;;;;;15.91;52.93;94610.47;4202119;28;20447;-57
2022/11/04 08:56:23;;;;;;;38.00;22.83;;;;;;;15.43;53.85;94605.06;4195559;28;20163;-55
2022/11/04 08:58:25;;;;;;;33.00;21.52;;;;;;;15.53;53.82;94609.00;4195840;28;20092;-56
2022/11/04 09:00:31;;;;;;;37.60;21.70;;;;;;;15.76;53.76;94605.31;4183364;28;20059;-54
2022/11/04 09:02:33;;;;;;;33.83;20.98;;;;;;;16.03;53.10;94594.91;4192682;28;20528;-54
2022/11/04 09:04:35;;;;;;;36.33;22.50;;;;;;;16.11;52.65;94595.56;4187002;28;20080;-54
2022/11/04 09:06:39;;;;;;;35.95;21.67;;;;;;;15.83;52.88;94592.13;4191831;28;20045;-57
2022/11/04 09:08:42;;;;;;;31.35;21.00;;;;;;;15.65;53.53;94589.97;4183719;28;20049;-57
2022/11/04 09:10:45;;;;;;;39.25;22.23;;;;;;;15.83;53.59;94590.34;4196653;28;20516;-60
2022/11/04 09:12:47;;;;;;;36.78;22.40;;;;;;;16.10;53.00;94588.63;4187054;28;20127;-56
2022/11/04 09:14:49;;;;;;;30.95;20.33;;;;;;;15.88;53.16;94581.81;4190444;28;20170;-57
2022/11/04 09:16:50;;;;;;;31.38;20.17;;;;;;;15.70;53.79;94582.28;4193353;28;20455;-51
2022/11/04 09:18:52;;;;;;;35.25;21.98;;;;;;;15.68;53.90;94565.81;4194590;28;20058;-54
2022/11/04 09:20:53;;;;;;;33.10;20.33;;;;;;;15.57;54.03;94578.56;4184353;28;20049;-56
2022/11/04 09:22:55;;;;;;;32.83;20.95;;;;;;;15.50;54.06;94564.47;4192374;28;20158;-55
2022/11/04 09:24:57;;;;;;;38.05;20.35;;;;;;;15.23;54.94;94570.56;4205134;28;20163;-54
2022/11/04 09:26:59;;;;;;;33.65;21.15;;;;;;;15.42;54.68;94574.38;4180316;28;20069;-60
2022/11/04 09:29:01;;;;;;;35.10;21.75;;;;;;;15.68;54.27;94569.28;4191685;28;20135;-55
2022/11/04 09:31:05;;;;;;;36.47;22.58;;;;;;;15.92;53.36;94573.31;4183820;28;20458;-55
2022/11/04 09:33:07;;;;;;;;;;;;;;;16.24;52.80;94554.34;4200619;28;20050;-56
2022/11/04 09:35:09;;;;;;;37.05;20.00;;;;;;;15.99;52.46;94556.69;4201011;28;20262;-58
2022/11/04 09:37:10;;;;;;;30.75;19.48;;;;;;;15.96;52.16;94553.41;4195931;28;20052;-57
2022/11/04 09:39:12;;;;;;;33.00;18.40;;;;;;;15.80;52.20;94556.38;4184769;28;20091;-56
2022/11/04 09:41:22;;;;;;;28.63;18.65;;;;;;;16.19;51.76;94547.00;4190273;28;20248;-56
2022/11/04 09:43:49;;;;;;;31.17;18.77;;;;;;;16.30;51.22;94535.84;4180153;28;20067;-53
2022/11/04 09:45:50;;;;;;;31.38;19.23;;;;;;;16.65;50.92;94537.56;4192118;28;20082;-53
2022/11/04 09:47:57;;;;;;;29.25;18.73;;;;;;;17.01;49.50;94529.31;4180812;28;20691;-54
2022/11/04 09:50:00;;;;;;;32.47;19.63;;;;;;;17.27;48.96;94531.19;4180507;28;20096;-56
2022/11/04 09:52:07;;;;;;;32.40;19.80;;;;;;;17.48;48.66;94514.22;4188074;28;20128;-54
2022/11/04 09:54:27;;;;;;;32.20;19.42;;;;;;;17.30;48.19;94514.88;4193134;28;20087;-51
2022/11/04 09:56:41;;;;;;;31.23;19.10;;;;;;;17.05;48.89;94512.00;4178245;28;20499;-53
2022/11/04 09:58:43;;;;;;;30.35;18.38;;;;;;;16.61;50.21;94504.66;4177254;28;20705;-54
2022/11/04 10:00:53;;;;;;;33.90;20.02;;;;;;;16.50;50.64;94512.13;4188156;28;20624;-55
2022/11/04 10:03:33;;;;;;;32.30;19.02;;;;;;;16.32;51.23;94496.81;4178922;28;20049;-55
2022/11/04 10:05:37;;;;;;;36.08;21.17;;;;;;;16.06;51.85;94496.75;4189020;28;20049;-57
2022/11/04 10:07:46;;;;;;;39.78;19.55;;;;;;;16.27;51.76;94498.44;4207093;28;20131;-55
2022/11/04 10:09:54;;;;;;;34.83;19.73;;;;;;;16.41;51.45;94488.72;4201417;28;20055;-55